createdAt,value
2022-09-12T00:03:01.834Z,63.40
2022-09-12T00:08:04.735Z,63.26
2022-09-12T00:13:09.483Z,63.28
2022-09-12T00:18:15.814Z,63.20
2022-09-12T00:23:18.527Z,63.21
2022-09-12T00:28:22.586Z,63.13
2022-09-12T00:33:25.321Z,63.26
2022-09-12T00:38:28.012Z,62.99
2022-09-12T00:43:40.736Z,62.75
2022-09-12T00:48:45.754Z,62.80
2022-09-12T00:53:50.194Z,62.79
2022-09-12T00:58:58.158Z,62.60
2022-09-12T01:04:01.329Z,62.60
2022-09-12T01:09:05.206Z,62.57
2022-09-12T01:14:10.113Z,62.64
2022-09-12T01:19:26.705Z,62.49
2022-09-12T01:24:43.191Z,62.49
2022-09-12T01:30:04.498Z,62.61
2022-09-12T01:35:16.735Z,62.61
2022-09-12T01:40:23.306Z,62.53
2022-09-12T01:45:29.882Z,62.25
2022-09-12T01:50:37.140Z,62.29
2022-09-12T01:55:43.436Z,62.49
2022-09-12T02:00:49.448Z,62.61
2022-09-12T02:05:56.416Z,62.20
2022-09-12T02:11:01.715Z,62.40
2022-09-12T02:16:08.713Z,62.24
2022-09-12T02:21:13.213Z,62.18
2022-09-12T02:26:22.374Z,62.32
2022-09-12T02:31:30.864Z,62.17
2022-09-12T02:36:40.610Z,62.12
2022-09-12T02:41:43.389Z,61.81
2022-09-12T02:46:48.598Z,62.01
2022-09-12T02:51:52.666Z,61.75
2022-09-12T02:56:55.440Z,61.77
2022-09-12T03:02:07.077Z,61.63
2022-09-12T03:07:17.276Z,61.66
2022-09-12T03:12:28.023Z,61.59
2022-09-12T03:17:36.440Z,61.58
2022-09-12T03:22:47.089Z,61.66
2022-09-12T03:27:57.191Z,61.80
2022-09-12T03:32:59.870Z,61.88
2022-09-12T03:38:03.945Z,61.53
2022-09-12T03:43:07.908Z,61.67
2022-09-12T03:48:10.620Z,61.83
2022-09-12T03:53:17.264Z,61.60
2022-09-12T03:58:20.303Z,61.24
2022-09-12T04:03:22.986Z,61.32
2022-09-12T04:08:27.242Z,61.39
2022-09-12T04:13:29.873Z,61.53
2022-09-12T04:18:33.452Z,61.27
2022-09-12T04:23:37.933Z,61.60
2022-09-12T04:28:41.061Z,61.32
2022-09-12T04:33:43.766Z,61.48
2022-09-12T04:38:48.999Z,61.15
2022-09-12T04:43:54.540Z,61.50
2022-09-12T04:48:57.347Z,61.32
2022-09-12T04:54:02.704Z,61.23
2022-09-12T04:59:05.426Z,61.38
2022-09-12T05:04:08.171Z,61.30
2022-09-12T05:09:14.145Z,61.06
2022-09-12T05:14:16.875Z,61.08
2022-09-12T05:19:19.879Z,60.90
2022-09-12T05:24:24.603Z,61.09
2022-09-12T05:29:27.323Z,61.00
2022-09-12T05:34:30.056Z,60.64
2022-09-12T05:39:34.177Z,60.43
2022-09-12T05:44:36.954Z,60.17
2022-09-12T05:49:39.643Z,60.16
2022-09-12T05:54:43.922Z,59.86
2022-09-12T05:59:46.576Z,59.27
2022-09-12T06:04:49.408Z,59.33
2022-09-12T06:09:53.667Z,58.98
2022-09-12T06:14:56.496Z,58.91
2022-09-12T06:19:59.238Z,58.56
2022-09-12T06:25:03.324Z,58.11
2022-09-12T06:30:07.466Z,57.72
2022-09-12T06:35:10.332Z,57.56
2022-09-12T06:40:14.492Z,57.06
2022-09-12T06:45:19.887Z,56.71
2022-09-12T06:50:22.595Z,56.50
2022-09-12T06:55:27.856Z,55.89
2022-09-12T07:00:31.310Z,55.63
2022-09-12T07:05:35.122Z,55.83
2022-09-12T07:10:39.160Z,55.63
2022-09-12T07:15:41.897Z,55.36
2022-09-12T07:20:44.659Z,55.55
2022-09-12T07:25:57.074Z,55.71
2022-09-12T07:31:02.533Z,55.44
2022-09-12T07:36:06.575Z,55.56
2022-09-12T07:41:14.336Z,55.79
2022-09-12T07:46:17.035Z,55.74
2022-09-12T07:51:20.242Z,55.99
2022-09-12T07:56:29.375Z,55.89
2022-09-12T08:01:33.139Z,55.92
2022-09-12T08:06:36.966Z,55.60
2022-09-12T08:11:41.077Z,55.63
2022-09-12T08:16:44.518Z,55.88
2022-09-12T08:21:47.273Z,55.89
2022-09-12T08:26:51.415Z,55.64
2022-09-12T08:31:57.281Z,55.70
2022-09-12T08:37:00.221Z,55.61
2022-09-12T08:42:06.183Z,55.38
2022-09-12T08:47:21.062Z,55.30
2022-09-12T08:52:28.270Z,55.58
2022-09-12T08:57:32.468Z,55.23
2022-09-12T09:02:53.631Z,55.10
2022-09-12T09:08:15.554Z,55.30
2022-09-12T09:13:45.623Z,55.17
2022-09-12T09:18:49.540Z,55.24
2022-09-12T09:23:56.042Z,54.88
2022-09-12T09:29:03.245Z,55.53
2022-09-12T09:34:11.959Z,55.23
2022-09-12T09:39:22.253Z,55.42
2022-09-12T09:44:36.527Z,55.40
2022-09-12T09:49:39.707Z,55.58
2022-09-12T09:54:45.963Z,55.75
2022-09-12T09:59:50.029Z,55.99
2022-09-12T10:04:55.754Z,55.78
2022-09-12T10:10:07.511Z,56.10
2022-09-12T10:15:21.306Z,56.09
2022-09-12T10:20:32.705Z,56.44
2022-09-12T10:25:35.484Z,56.63
2022-09-12T10:30:40.094Z,56.57
2022-09-12T10:35:48.627Z,56.62
2022-09-12T10:40:58.028Z,56.45
2022-09-12T10:46:29.015Z,56.76
2022-09-12T10:51:31.835Z,57.06
2022-09-12T10:56:37.580Z,57.10
2022-09-12T11:01:44.229Z,57.17
2022-09-12T11:06:57.393Z,57.28
2022-09-12T11:12:06.056Z,57.10
2022-09-12T11:17:19.821Z,57.14
2022-09-12T11:22:37.170Z,57.15
2022-09-12T11:27:53.538Z,57.14
2022-09-12T11:33:09.219Z,56.88
2022-09-12T11:38:43.163Z,56.91
2022-09-12T11:43:49.219Z,56.90
2022-09-12T11:48:56.793Z,56.77
2022-09-12T11:54:05.111Z,56.80
2022-09-12T11:59:14.874Z,56.87
2022-09-12T12:04:22.967Z,56.76
2022-09-12T12:09:25.823Z,56.41
2022-09-12T12:14:32.873Z,56.79
2022-09-12T12:19:38.059Z,56.39
2022-09-12T12:24:55.800Z,56.29
2022-09-12T12:29:58.693Z,56.21
2022-09-12T12:35:42.742Z,56.27
2022-09-12T12:40:45.529Z,56.06
2022-09-12T12:46:12.875Z,56.18
2022-09-12T12:51:45.053Z,56.13
2022-09-12T12:56:49.995Z,55.77
2022-09-12T13:01:58.777Z,55.94
2022-09-12T13:07:11.273Z,55.84
2022-09-12T13:12:21.060Z,55.44
2022-09-12T13:17:28.373Z,55.51
2022-09-12T13:22:51.087Z,55.40
2022-09-12T13:28:04.799Z,55.21
2022-09-12T13:33:16.504Z,55.29
2022-09-12T13:38:35.246Z,54.89
2022-09-12T13:43:41.169Z,54.82
2022-09-12T13:48:45.244Z,54.79
2022-09-12T13:53:50.876Z,54.77
2022-09-12T13:58:57.863Z,54.86
2022-09-12T14:04:21.168Z,54.51
2022-09-12T14:09:28.870Z,54.39
2022-09-12T14:14:35.989Z,54.27
2022-09-12T14:19:38.792Z,54.14
2022-09-12T14:24:42.952Z,54.12
2022-09-12T14:29:46.080Z,53.99
2022-09-12T14:35:19.790Z,53.84
2022-09-12T14:40:24.818Z,53.92
2022-09-12T14:45:30.919Z,53.87
2022-09-12T14:50:36.484Z,53.67
2022-09-12T14:55:46.574Z,53.68
2022-09-12T15:00:57.733Z,53.51
2022-09-12T15:06:02.780Z,53.43
2022-09-12T15:11:07.579Z,53.27
2022-09-12T15:16:11.503Z,53.43
2022-09-12T15:21:18.603Z,53.22
2022-09-12T15:26:24.427Z,53.21
2022-09-12T15:31:28.913Z,53.16
2022-09-12T15:36:31.911Z,53.36
2022-09-12T15:41:37.860Z,53.09
2022-09-12T15:46:41.035Z,53.14
2022-09-12T15:51:43.752Z,53.09
2022-09-12T15:56:47.836Z,53.19
2022-09-12T16:01:50.637Z,53.28
2022-09-12T16:06:54.184Z,52.95
2022-09-12T16:11:58.311Z,53.17
2022-09-12T16:17:01.713Z,53.12
2022-09-12T16:22:04.415Z,52.99
2022-09-12T16:27:08.561Z,53.26
2022-09-12T16:32:11.422Z,53.06
2022-09-12T16:37:14.196Z,53.33
2022-09-12T16:42:19.264Z,53.17
2022-09-12T16:47:22.092Z,53.28
2022-09-12T16:52:28.385Z,53.32
2022-09-12T16:57:39.546Z,53.22
2022-09-12T17:02:44.984Z,53.39
2022-09-12T17:07:50.163Z,53.18
2022-09-12T17:12:54.467Z,52.98
2022-09-12T17:18:00.307Z,53.12
2022-09-12T17:23:09.489Z,53.07
2022-09-12T17:28:18.649Z,53.00
2022-09-12T17:33:24.825Z,53.04
2022-09-12T17:38:28.670Z,53.20
2022-09-12T17:43:33.481Z,53.08
2022-09-12T17:48:36.490Z,53.25
2022-09-12T17:53:39.289Z,53.14
2022-09-12T17:58:43.363Z,53.25
2022-09-12T18:03:46.459Z,53.33
2022-09-12T18:08:49.214Z,53.25
2022-09-12T18:13:53.304Z,53.50
2022-09-12T18:19:01.339Z,53.83
2022-09-12T18:24:05.388Z,53.89
2022-09-12T18:29:09.605Z,54.12
2022-09-12T18:34:13.823Z,54.34
2022-09-12T18:39:17.861Z,54.72
2022-09-12T18:44:21.938Z,55.12
2022-09-12T18:49:24.719Z,56.11
2022-09-12T18:54:27.420Z,56.45
2022-09-12T18:59:31.519Z,56.87
2022-09-12T19:04:34.240Z,57.29
2022-09-12T19:09:36.974Z,57.45
2022-09-12T19:14:41.091Z,57.19
2022-09-12T19:19:43.770Z,56.90
2022-09-12T19:24:46.512Z,56.57
2022-09-12T19:29:50.623Z,56.32
2022-09-12T19:34:53.370Z,56.18
2022-09-12T19:39:56.628Z,56.30
2022-09-12T19:45:00.801Z,56.20
2022-09-12T19:50:03.686Z,55.83
2022-09-12T19:55:07.230Z,55.73
2022-09-12T20:00:12.855Z,55.74
2022-09-12T20:05:15.610Z,55.77
2022-09-12T20:10:18.512Z,55.93
2022-09-12T20:15:22.541Z,55.92
2022-09-12T20:20:26.640Z,55.94
2022-09-12T20:25:29.373Z,55.64
2022-09-12T20:30:33.443Z,55.73
2022-09-12T20:35:36.138Z,55.73
2022-09-12T20:40:38.819Z,55.77
2022-09-12T20:45:42.924Z,55.47
2022-09-12T20:50:45.696Z,55.55
2022-09-12T20:55:51.553Z,55.42
2022-09-12T21:00:55.643Z,55.18
2022-09-12T21:05:58.786Z,55.34
2022-09-12T21:11:02.083Z,55.28
2022-09-12T21:16:07.901Z,55.35
2022-09-12T21:21:11.374Z,55.17
2022-09-12T21:26:14.063Z,55.15
2022-09-12T21:31:18.279Z,55.29
2022-09-12T21:36:21.016Z,55.09
2022-09-12T21:41:23.849Z,55.03
2022-09-12T21:46:28.031Z,55.09
2022-09-12T21:51:30.934Z,55.09
2022-09-12T21:56:33.700Z,55.20
2022-09-12T22:01:37.881Z,55.26
2022-09-12T22:06:40.629Z,55.42
2022-09-12T22:11:43.839Z,55.40
2022-09-12T22:16:48.000Z,55.29
2022-09-12T22:22:07.535Z,55.38
2022-09-12T22:27:10.350Z,55.30
2022-09-12T22:32:14.588Z,55.39
2022-09-12T22:37:17.834Z,55.47
2022-09-12T22:42:20.571Z,55.27
2022-09-12T22:47:24.763Z,55.63
2022-09-12T22:52:29.632Z,55.54
2022-09-12T22:57:32.345Z,55.53
2022-09-12T23:02:36.369Z,55.50
2022-09-12T23:07:39.092Z,55.48
2022-09-12T23:12:41.784Z,55.39
2022-09-12T23:17:45.860Z,55.42
2022-09-12T23:22:50.964Z,55.33
2022-09-12T23:27:53.960Z,55.43
2022-09-12T23:32:58.183Z,55.55
2022-09-12T23:38:00.855Z,55.62
2022-09-12T23:43:03.526Z,55.64
2022-09-12T23:48:07.686Z,55.48
2022-09-12T23:53:10.747Z,55.75
2022-09-12T23:58:14.792Z,55.77
